createdAt,value
2018-05-27T00:00:12.604Z,0
2018-05-27T00:01:12.979Z,0
2018-05-27T00:02:14.276Z,0
2018-05-27T00:03:15.355Z,0
2018-05-27T00:07:26.200Z,0
2018-05-27T00:08:21.020Z,0
2018-05-27T00:10:00.612Z,0
2018-05-27T00:10:56.613Z,0
2018-05-27T00:11:52.923Z,0
2018-05-27T00:12:55.751Z,0
2018-05-27T00:13:50.875Z,0
2018-05-27T00:14:49.975Z,0
2018-05-27T00:15:48.370Z,0
2018-05-27T00:18:04.874Z,0
2018-05-27T00:18:52.020Z,0
2018-05-27T00:19:50.388Z,0
2018-05-27T00:20:51.862Z,0
2018-05-27T00:21:56.317Z,0
2018-05-27T00:22:50.167Z,0
2018-05-27T00:23:50.972Z,0
2018-05-27T00:24:49.915Z,0
2018-05-27T00:25:53.654Z,0
2018-05-27T00:26:49.805Z,0
2018-05-27T00:27:51.633Z,0
2018-05-27T00:28:47.887Z,0
2018-05-27T00:29:48.495Z,0
2018-05-27T00:30:48.061Z,0
2018-05-27T00:31:49.022Z,0
2018-05-27T00:32:49.117Z,0
2018-05-27T00:33:48.677Z,0
2018-05-27T00:34:48.324Z,0
2018-05-27T00:35:48.939Z,0
2018-05-27T00:36:49.756Z,0
2018-05-27T00:37:48.789Z,0
2018-05-27T00:38:48.396Z,0
2018-05-27T00:39:49.092Z,0
2018-05-27T00:40:48.968Z,0
2018-05-27T00:41:49.526Z,0
2018-05-27T00:42:48.544Z,0
2018-05-27T00:43:48.263Z,0
2018-05-27T00:44:49.326Z,0
2018-05-27T00:46:34.336Z,0
2018-05-27T00:47:34.819Z,0
2018-05-27T00:48:56.570Z,0
2018-05-27T00:49:57.996Z,0
2018-05-27T00:50:56.679Z,0
2018-05-27T00:52:17.547Z,0
2018-05-27T00:53:18.404Z,0
2018-05-27T00:54:18.219Z,0
2018-05-27T00:55:17.941Z,0
2018-05-27T00:56:18.686Z,0
2018-05-27T00:57:18.414Z,0
2018-05-27T00:58:18.138Z,0
2018-05-27T00:59:17.558Z,0
2018-05-27T01:00:18.841Z,0
2018-05-27T01:01:18.375Z,0
2018-05-27T01:02:39.278Z,0
2018-05-27T01:03:40.047Z,0
2018-05-27T01:04:39.626Z,0
2018-05-27T01:05:39.137Z,0
2018-05-27T01:06:39.916Z,0
2018-05-27T01:08:00.535Z,0
2018-05-27T01:09:01.946Z,0
2018-05-27T01:10:00.750Z,0
2018-05-27T01:11:00.690Z,0
2018-05-27T01:12:01.183Z,0
2018-05-27T01:13:00.961Z,0
2018-05-27T01:14:00.628Z,0
2018-05-27T01:15:01.105Z,0
2018-05-27T01:16:00.610Z,0
2018-05-27T01:17:23.059Z,0
2018-05-27T01:18:23.831Z,0
2018-05-27T01:19:23.627Z,0
2018-05-27T01:20:23.980Z,0
2018-05-27T01:21:23.411Z,0
2018-05-27T01:22:23.799Z,0
2018-05-27T01:23:23.380Z,0
2018-05-27T01:24:23.394Z,0
2018-05-27T01:25:23.129Z,0
2018-05-27T01:26:25.009Z,0
2018-05-27T01:27:24.334Z,0
2018-05-27T01:28:45.606Z,0
2018-05-27T01:29:46.121Z,0
2018-05-27T01:30:45.797Z,0
2018-05-27T01:31:46.373Z,0
2018-05-27T01:32:45.964Z,0
2018-05-27T01:34:28.532Z,0
2018-05-27T01:35:29.031Z,0
2018-05-27T01:36:29.464Z,0
2018-05-27T01:37:29.151Z,0
2018-05-27T01:38:28.970Z,0
2018-05-27T01:39:29.355Z,0
2018-05-27T01:40:50.261Z,0
2018-05-27T01:41:51.542Z,0
2018-05-27T01:42:50.717Z,0
2018-05-27T01:43:51.031Z,0
2018-05-27T01:44:51.062Z,0
2018-05-27T01:45:50.806Z,0
2018-05-27T01:46:50.848Z,0
2018-05-27T01:47:50.196Z,0
2018-05-27T01:48:50.747Z,0
2018-05-27T01:49:50.091Z,0
2018-05-27T01:50:50.628Z,0
2018-05-27T01:52:12.523Z,0
2018-05-27T01:53:13.995Z,0
2018-05-27T01:54:12.637Z,0
2018-05-27T01:55:35.863Z,0
2018-05-27T01:56:36.574Z,0
2018-05-27T01:57:36.389Z,0
2018-05-27T01:58:35.814Z,0
2018-05-27T01:59:36.625Z,0
2018-05-27T02:00:36.315Z,0
2018-05-27T02:01:35.552Z,0
2018-05-27T02:02:36.237Z,0
2018-05-27T02:03:35.949Z,0
2018-05-27T02:04:35.889Z,0
2018-05-27T02:05:36.230Z,0
2018-05-27T02:06:37.094Z,0
2018-05-27T02:07:36.762Z,0
2018-05-27T02:08:36.574Z,0
2018-05-27T02:09:36.374Z,0
2018-05-27T02:10:35.843Z,0
2018-05-27T02:11:36.516Z,0
2018-05-27T02:12:36.317Z,0
2018-05-27T02:13:35.720Z,0
2018-05-27T02:14:36.239Z,0
2018-05-27T02:15:57.703Z,0
2018-05-27T02:16:59.352Z,0
2018-05-27T02:17:58.190Z,0
2018-05-27T02:18:58.572Z,0
2018-05-27T02:19:58.147Z,0
2018-05-27T02:20:59.444Z,0
2018-05-27T02:21:57.954Z,0
2018-05-27T02:22:58.445Z,0
2018-05-27T02:23:58.093Z,0
2018-05-27T02:24:58.522Z,0
2018-05-27T02:25:58.232Z,0
2018-05-27T02:26:58.837Z,0
2018-05-27T02:27:58.505Z,0
2018-05-27T02:28:58.022Z,0
2018-05-27T02:29:59.787Z,0
2018-05-27T02:30:58.470Z,0
2018-05-27T02:31:58.230Z,0
2018-05-27T02:32:58.903Z,0
2018-05-27T02:34:06.128Z,0
2018-05-27T02:34:58.914Z,0
2018-05-27T02:35:58.505Z,0
2018-05-27T02:36:58.932Z,0
2018-05-27T02:37:58.763Z,0
2018-05-27T02:38:58.377Z,0
2018-05-27T02:41:02.174Z,0
2018-05-27T02:42:02.856Z,0
2018-05-27T02:43:02.965Z,0
2018-05-27T02:44:02.671Z,0
2018-05-27T02:45:02.080Z,0
2018-05-27T02:46:04.132Z,0
2018-05-27T02:47:02.786Z,0
2018-05-27T02:48:02.339Z,0
2018-05-27T02:49:03.760Z,0
2018-05-27T02:50:03.185Z,0
2018-05-27T02:51:03.221Z,0
2018-05-27T02:52:02.956Z,0
2018-05-27T02:53:02.771Z,0
2018-05-27T02:54:02.507Z,0
2018-05-27T02:55:03.025Z,0
2018-05-27T02:56:02.654Z,0
2018-05-27T02:57:02.679Z,0
2018-05-27T02:58:23.990Z,0
2018-05-27T02:59:24.390Z,0
2018-05-27T03:00:24.834Z,0
2018-05-27T03:01:25.437Z,0
2018-05-27T03:02:24.247Z,0
2018-05-27T03:03:23.845Z,0
2018-05-27T03:04:24.197Z,1
2018-05-27T03:05:23.898Z,1
2018-05-27T03:06:24.449Z,1
2018-05-27T03:07:25.204Z,1
2018-05-27T03:08:24.040Z,1
2018-05-27T03:09:23.900Z,1
2018-05-27T03:10:23.712Z,1
2018-05-27T03:11:46.270Z,2
2018-05-27T03:12:47.023Z,2
2018-05-27T03:13:46.467Z,2
2018-05-27T03:14:46.400Z,2
2018-05-27T03:16:32.475Z,2
2018-05-27T03:17:33.170Z,3
2018-05-27T03:18:54.006Z,3
2018-05-27T03:19:54.532Z,3
2018-05-27T03:20:53.959Z,3
2018-05-27T03:21:54.524Z,4
2018-05-27T03:22:54.714Z,4
2018-05-27T03:24:16.008Z,4
2018-05-27T03:25:16.834Z,4
2018-05-27T03:26:17.014Z,5
2018-05-27T03:27:38.521Z,5
2018-05-27T03:28:39.242Z,5
2018-05-27T03:29:39.007Z,6
2018-05-27T03:30:38.541Z,6
2018-05-27T03:31:39.085Z,6
2018-05-27T03:33:00.276Z,7
2018-05-27T03:34:01.027Z,7
2018-05-27T03:35:22.253Z,8
2018-05-27T03:36:22.804Z,8
2018-05-27T03:37:43.668Z,9
2018-05-27T03:38:44.243Z,9
2018-05-27T03:39:43.898Z,10
2018-05-27T03:41:06.187Z,11
2018-05-27T03:42:07.033Z,11
2018-05-27T03:43:29.084Z,11
2018-05-27T03:44:28.887Z,12
2018-05-27T03:45:28.395Z,12
2018-05-27T03:46:29.224Z,12
2018-05-27T03:47:29.304Z,12
2018-05-27T03:48:29.176Z,13
2018-05-27T03:49:28.976Z,13
2018-05-27T03:50:29.563Z,14
2018-05-27T03:51:50.062Z,14
2018-05-27T03:52:50.054Z,15
2018-05-27T03:53:50.926Z,16
2018-05-27T03:54:50.645Z,16
2018-05-27T03:56:34.358Z,17
2018-05-27T03:57:34.861Z,17
2018-05-27T03:58:35.704Z,18
2018-05-27T03:59:35.593Z,18
2018-05-27T04:00:35.145Z,19
2018-05-27T04:01:34.961Z,19
2018-05-27T04:02:35.007Z,19
2018-05-27T04:03:34.675Z,19
2018-05-27T04:04:56.977Z,20
2018-05-27T04:05:57.815Z,20
2018-05-27T04:07:18.607Z,21
2018-05-27T04:08:19.302Z,22
2018-05-27T04:09:40.551Z,23
2018-05-27T04:10:41.275Z,23
2018-05-27T04:11:41.029Z,23
2018-05-27T04:12:41.504Z,24
2018-05-27T04:14:25.497Z,25
2018-05-27T04:15:48.290Z,26
2018-05-27T04:16:48.371Z,27
2018-05-27T04:17:47.901Z,28
2018-05-27T04:18:48.423Z,29
2018-05-27T04:19:48.456Z,30
2018-05-27T04:20:48.281Z,31
2018-05-27T04:21:48.009Z,32
2018-05-27T04:22:48.036Z,33
2018-05-27T04:23:47.768Z,33
2018-05-27T04:24:48.421Z,34
2018-05-27T04:25:48.368Z,37
2018-05-27T04:26:47.851Z,39
2018-05-27T04:27:47.793Z,40
2018-05-27T04:28:48.755Z,41
2018-05-27T04:30:10.774Z,43
2018-05-27T04:31:11.550Z,44
2018-05-27T04:32:11.154Z,45
2018-05-27T04:33:10.818Z,45
2018-05-27T04:34:12.809Z,46
2018-05-27T04:35:33.169Z,52
2018-05-27T04:36:32.914Z,55
2018-05-27T04:37:55.958Z,58
2018-05-27T04:39:19.130Z,59
2018-05-27T04:40:19.860Z,60
2018-05-27T04:41:19.535Z,57
2018-05-27T04:42:19.225Z,59
2018-05-27T04:43:20.183Z,66
2018-05-27T04:44:42.380Z,73
2018-05-27T04:45:41.362Z,78
2018-05-27T04:46:41.369Z,80
2018-05-27T04:47:41.005Z,83
2018-05-27T04:49:03.636Z,90
2018-05-27T04:50:04.159Z,94
2018-05-27T04:51:03.807Z,95
2018-05-27T04:52:03.488Z,100
2018-05-27T04:53:04.254Z,85
2018-05-27T04:54:04.424Z,83
2018-05-27T04:55:04.226Z,80
2018-05-27T04:56:04.675Z,76
2018-05-27T04:57:03.447Z,66
2018-05-27T04:58:04.139Z,57
2018-05-27T04:59:03.696Z,63
2018-05-27T05:00:04.398Z,77
2018-05-27T05:01:04.279Z,84
2018-05-27T05:02:04.309Z,90
2018-05-27T05:03:04.085Z,96
2018-05-27T05:04:03.786Z,99
2018-05-27T05:05:24.682Z,88
2018-05-27T05:06:25.406Z,77
2018-05-27T05:07:25.875Z,102
2018-05-27T05:08:25.724Z,112
2018-05-27T05:09:25.621Z,114
2018-05-27T05:10:25.924Z,115
2018-05-27T05:11:25.701Z,121
2018-05-27T05:12:25.823Z,118
2018-05-27T05:13:25.526Z,121
2018-05-27T05:14:46.797Z,120
2018-05-27T05:15:48.799Z,125
2018-05-27T05:16:47.680Z,133
2018-05-27T05:17:47.824Z,133
2018-05-27T05:18:48.446Z,135
2018-05-27T05:19:47.771Z,142
2018-05-27T05:20:47.945Z,142
2018-05-27T05:21:48.142Z,150
2018-05-27T05:22:47.059Z,156
2018-05-27T05:23:46.799Z,153
2018-05-27T05:24:47.870Z,145
2018-05-27T05:25:47.872Z,144
2018-05-27T05:26:47.623Z,150
2018-05-27T05:27:47.622Z,160
2018-05-27T05:28:47.481Z,163
2018-05-27T05:29:47.328Z,163
2018-05-27T05:30:47.003Z,160
2018-05-27T05:32:08.527Z,158
2018-05-27T05:33:09.472Z,150
2018-05-27T05:34:09.162Z,158
2018-05-27T05:35:09.063Z,168
2018-05-27T05:36:08.760Z,174
2018-05-27T05:37:08.486Z,173
2018-05-27T05:38:09.181Z,166
2018-05-27T05:39:09.253Z,169
2018-05-27T05:40:08.917Z,177
2018-05-27T05:41:08.620Z,174
2018-05-27T05:42:08.425Z,177
2018-05-27T05:43:09.380Z,187
2018-05-27T05:44:30.744Z,202
2018-05-27T05:45:31.625Z,195
2018-05-27T05:46:31.702Z,193
2018-05-27T05:47:32.343Z,195
2018-05-27T05:48:31.080Z,194
2018-05-27T05:49:30.904Z,193
2018-05-27T05:50:32.052Z,183
2018-05-27T05:51:31.227Z,178
2018-05-27T05:52:42.883Z,169
2018-05-27T05:53:30.732Z,167
2018-05-27T05:54:31.683Z,177
2018-05-27T05:55:53.668Z,194
2018-05-27T05:56:53.170Z,207
2018-05-27T05:57:53.926Z,214
2018-05-27T05:59:15.114Z,227
2018-05-27T06:00:15.947Z,230
2018-05-27T06:01:15.885Z,224
2018-05-27T06:02:39.443Z,239
2018-05-27T06:03:40.039Z,248
2018-05-27T06:04:39.864Z,250
2018-05-27T06:05:39.622Z,247
2018-05-27T06:06:39.484Z,248
2018-05-27T06:07:40.074Z,253
2018-05-27T06:08:41.105Z,256
2018-05-27T06:09:39.598Z,263
2018-05-27T06:10:39.412Z,272
2018-05-27T06:11:40.158Z,271
2018-05-27T06:12:40.209Z,259
2018-05-27T06:13:39.825Z,260
2018-05-27T06:14:39.843Z,263
2018-05-27T06:15:39.742Z,261
2018-05-27T06:16:40.372Z,259
2018-05-27T06:17:40.149Z,264
2018-05-27T06:19:01.274Z,273
2018-05-27T06:20:01.940Z,285
2018-05-27T06:21:01.992Z,297
2018-05-27T06:22:44.581Z,297
2018-05-27T06:23:45.600Z,301
2018-05-27T06:24:45.682Z,298
2018-05-27T06:26:07.247Z,303
2018-05-27T06:27:29.289Z,307
2018-05-27T06:28:50.929Z,281
2018-05-27T06:29:50.610Z,296
2018-05-27T06:30:51.705Z,318
2018-05-27T06:31:51.564Z,314
2018-05-27T06:33:12.859Z,310
2018-05-27T06:34:57.046Z,309
2018-05-27T06:35:55.894Z,305
2018-05-27T06:36:55.762Z,319
2018-05-27T06:37:55.435Z,338
2018-05-27T06:39:17.823Z,323
2018-05-27T06:40:39.137Z,310
2018-05-27T06:41:38.734Z,318
2018-05-27T06:42:39.509Z,341
2018-05-27T06:43:39.475Z,349
2018-05-27T06:44:39.585Z,336
2018-05-27T06:46:00.735Z,326
2018-05-27T06:47:00.793Z,301
2018-05-27T06:48:04.598Z,293
2018-05-27T06:49:02.174Z,321
2018-05-27T06:50:00.830Z,338
2018-05-27T06:51:00.562Z,343
2018-05-27T06:52:24.467Z,363
2018-05-27T06:53:25.018Z,354
2018-05-27T06:54:24.696Z,350
2018-05-27T06:55:24.344Z,352
2018-05-27T06:56:25.005Z,359
2018-05-27T06:57:25.047Z,358
2018-05-27T06:58:24.586Z,339
2018-05-27T06:59:46.233Z,358
2018-05-27T07:00:47.033Z,383
2018-05-27T07:01:47.152Z,394
2018-05-27T07:02:46.919Z,391
2018-05-27T07:03:46.478Z,390
2018-05-27T07:04:46.592Z,392
2018-05-27T07:05:46.291Z,387
2018-05-27T07:06:47.332Z,391
2018-05-27T07:07:47.000Z,401
2018-05-27T07:08:46.610Z,388
2018-05-27T07:09:46.394Z,384
2018-05-27T07:10:46.033Z,396
2018-05-27T07:11:47.972Z,411
2018-05-27T07:12:46.974Z,407
2018-05-27T07:14:55.820Z,430
2018-05-27T07:15:55.812Z,420
2018-05-27T07:16:55.566Z,415
2018-05-27T07:17:56.684Z,433
2018-05-27T07:18:55.696Z,441
2018-05-27T07:19:57.384Z,426
2018-05-27T07:20:56.604Z,382
2018-05-27T07:21:56.834Z,347
2018-05-27T07:23:45.050Z,343
2018-05-27T07:24:43.637Z,336
2018-05-27T07:25:44.447Z,317
2018-05-27T07:26:44.899Z,307
2018-05-27T07:27:44.321Z,312
2018-05-27T07:28:44.174Z,337
2018-05-27T07:29:43.986Z,377
2018-05-27T07:30:46.170Z,426
2018-05-27T07:31:45.210Z,447
2018-05-27T07:32:44.369Z,471
2018-05-27T07:34:05.843Z,488
2018-05-27T07:35:33.178Z,481
2018-05-27T07:37:27.911Z,489
2018-05-27T07:38:24.306Z,482
2018-05-27T07:39:21.579Z,488
2018-05-27T07:40:21.367Z,491
2018-05-27T07:41:20.073Z,496
2018-05-27T07:43:40.086Z,511
2018-05-27T07:44:37.344Z,514
2018-05-27T07:45:38.759Z,526
2018-05-27T07:46:37.081Z,528
2018-05-27T07:47:37.404Z,516
2018-05-27T07:48:40.318Z,529
2018-05-27T07:49:38.876Z,521
2018-05-27T07:50:42.786Z,495
2018-05-27T07:51:37.029Z,509
2018-05-27T07:52:37.353Z,514
2018-05-27T07:53:37.534Z,518
2018-05-27T07:55:00.818Z,525
2018-05-27T07:56:01.696Z,521
2018-05-27T07:57:01.554Z,533
2018-05-27T07:58:03.457Z,532
2018-05-27T07:59:24.706Z,529
2018-05-27T08:00:24.416Z,545
2018-05-27T08:01:25.507Z,558
2018-05-27T08:02:24.295Z,554
2018-05-27T08:03:24.346Z,541
2018-05-27T08:04:24.185Z,541
2018-05-27T08:05:23.988Z,535
2018-05-27T08:06:23.908Z,471
2018-05-27T08:07:23.813Z,419
2018-05-27T08:08:24.965Z,426
2018-05-27T08:09:23.801Z,495
2018-05-27T08:10:23.515Z,554
2018-05-27T08:11:23.068Z,563
2018-05-27T08:12:47.667Z,503
2018-05-27T08:13:49.210Z,514
2018-05-27T08:14:47.879Z,558
2018-05-27T08:15:47.573Z,583
2018-05-27T08:16:48.408Z,597
2018-05-27T08:17:48.170Z,607
2018-05-27T08:18:48.148Z,613
2018-05-27T08:19:48.140Z,593
2018-05-27T08:20:47.624Z,576
2018-05-27T08:21:48.794Z,591
2018-05-27T08:22:48.235Z,602
2018-05-27T08:23:47.890Z,611
2018-05-27T08:24:47.555Z,594
2018-05-27T08:25:49.034Z,572
2018-05-27T08:26:48.487Z,581
2018-05-27T08:27:48.037Z,595
2018-05-27T08:28:48.022Z,608
2018-05-27T08:30:56.860Z,608
2018-05-27T08:31:56.901Z,617
2018-05-27T08:32:57.769Z,626
2018-05-27T08:33:56.643Z,622
2018-05-27T08:34:56.606Z,613
2018-05-27T08:35:57.964Z,622
2018-05-27T08:36:57.248Z,623
2018-05-27T08:37:57.293Z,622
2018-05-27T08:38:57.301Z,631
2018-05-27T08:40:26.194Z,625
2018-05-27T08:41:23.707Z,622
2018-05-27T08:42:27.545Z,635
2018-05-27T08:43:25.637Z,628
2018-05-27T08:44:32.158Z,623
2018-05-27T08:45:47.605Z,639
2018-05-27T08:46:49.127Z,644
2018-05-27T08:47:50.856Z,653
2018-05-27T08:48:49.657Z,641
2018-05-27T08:50:41.300Z,639
2018-05-27T08:51:37.386Z,686
2018-05-27T08:52:59.806Z,666
2018-05-27T08:53:59.880Z,657
2018-05-27T08:55:01.340Z,670
2018-05-27T08:56:00.614Z,679
2018-05-27T08:56:59.298Z,667
2018-05-27T08:58:00.236Z,658
2018-05-27T08:58:59.727Z,661
2018-05-27T09:00:02.905Z,663
2018-05-27T09:00:59.754Z,664
2018-05-27T09:02:04.591Z,667
2018-05-27T09:02:59.640Z,640
2018-05-27T09:04:22.007Z,654
2018-05-27T09:05:25.428Z,676
2018-05-27T09:06:22.245Z,671
2018-05-27T09:07:44.729Z,666
2018-05-27T09:09:28.526Z,677
2018-05-27T09:11:12.331Z,698
2018-05-27T09:12:13.462Z,707
2018-05-27T09:13:13.399Z,708
2018-05-27T09:14:13.627Z,706
2018-05-27T09:15:35.983Z,691
2018-05-27T09:16:36.014Z,697
2018-05-27T09:17:36.229Z,692
2018-05-27T09:18:37.870Z,702
2018-05-27T09:19:36.821Z,705
2018-05-27T09:20:36.916Z,660
2018-05-27T09:21:37.818Z,604
2018-05-27T09:22:37.416Z,602
2018-05-27T09:23:37.135Z,640
2018-05-27T09:24:36.793Z,678
2018-05-27T09:25:37.366Z,692
2018-05-27T09:26:40.503Z,695
2018-05-27T09:27:39.656Z,685
2018-05-27T09:28:42.054Z,686
2018-05-27T09:29:37.005Z,714
2018-05-27T09:30:36.299Z,718
2018-05-27T09:31:39.480Z,684
2018-05-27T09:32:36.352Z,669
2018-05-27T09:33:37.482Z,674
2018-05-27T09:34:58.129Z,672
2018-05-27T09:36:04.024Z,674
2018-05-27T09:37:04.239Z,685
2018-05-27T09:38:02.484Z,695
2018-05-27T09:38:58.865Z,720
2018-05-27T09:40:00.984Z,738
2018-05-27T09:40:58.691Z,719
2018-05-27T09:41:58.537Z,705
2018-05-27T09:42:58.884Z,658
2018-05-27T09:43:58.795Z,608
2018-05-27T09:44:59.161Z,608
2018-05-27T09:45:58.403Z,660
2018-05-27T09:46:58.740Z,686
2018-05-27T09:47:58.702Z,694
2018-05-27T09:48:58.754Z,673
2018-05-27T09:50:02.445Z,653
2018-05-27T09:50:58.458Z,671
2018-05-27T09:51:58.540Z,684
2018-05-27T09:52:58.403Z,677
2018-05-27T09:54:22.124Z,718
2018-05-27T09:55:46.050Z,746
2018-05-27T09:56:43.138Z,744
2018-05-27T09:58:26.886Z,668
2018-05-27T09:59:28.238Z,645
2018-05-27T10:00:27.310Z,662
2018-05-27T10:01:27.192Z,677
2018-05-27T10:02:28.169Z,671
2018-05-27T10:03:27.082Z,657
2018-05-27T10:04:27.661Z,663
2018-05-27T10:05:27.534Z,667
2018-05-27T10:06:27.178Z,661
2018-05-27T10:07:27.053Z,660
2018-05-27T10:08:49.569Z,669
2018-05-27T10:09:49.003Z,661
2018-05-27T10:10:49.142Z,643
2018-05-27T10:11:49.389Z,635
2018-05-27T10:13:36.034Z,650
2018-05-27T10:15:44.179Z,705
2018-05-27T10:16:47.431Z,699
2018-05-27T10:17:43.784Z,676
2018-05-27T10:18:47.011Z,655
2018-05-27T10:19:44.660Z,608
2018-05-27T10:20:47.607Z,578
2018-05-27T10:21:52.936Z,590
2018-05-27T10:22:46.443Z,634
2018-05-27T10:23:44.106Z,699
2018-05-27T10:24:42.948Z,701
2018-05-27T10:25:44.120Z,692
2018-05-27T10:26:43.029Z,707
2018-05-27T10:27:44.810Z,738
2018-05-27T10:28:43.289Z,727
2018-05-27T10:29:43.092Z,658
2018-05-27T10:30:43.023Z,594
2018-05-27T10:31:45.272Z,583
2018-05-27T10:32:45.103Z,631
2018-05-27T10:33:42.906Z,680
2018-05-27T10:34:42.472Z,689
2018-05-27T10:35:43.366Z,687
2018-05-27T10:36:43.110Z,675
2018-05-27T10:37:45.298Z,644
2018-05-27T10:38:43.461Z,613
2018-05-27T10:40:04.838Z,635
2018-05-27T10:41:07.799Z,662
2018-05-27T10:42:06.098Z,666
2018-05-27T10:43:05.944Z,654
2018-05-27T10:44:06.022Z,655
2018-05-27T10:45:29.399Z,657
2018-05-27T10:46:30.555Z,654
2018-05-27T10:47:30.070Z,648
2018-05-27T10:48:32.585Z,647
2018-05-27T10:49:29.879Z,649
2018-05-27T10:50:29.096Z,655
2018-05-27T10:51:31.215Z,679
2018-05-27T10:52:29.033Z,724
2018-05-27T10:53:28.605Z,706
2018-05-27T10:54:28.676Z,672
2018-05-27T10:55:29.346Z,666
2018-05-27T10:56:29.487Z,698
2018-05-27T10:57:29.488Z,706
2018-05-27T10:58:29.671Z,672
2018-05-27T10:59:30.671Z,625
2018-05-27T11:00:29.554Z,635
2018-05-27T11:01:30.893Z,701
2018-05-27T11:02:28.801Z,764
2018-05-27T11:03:28.763Z,775
2018-05-27T11:04:29.739Z,734
2018-05-27T11:05:29.363Z,674
2018-05-27T11:06:29.535Z,627
2018-05-27T11:07:29.880Z,614
2018-05-27T11:08:29.599Z,633
2018-05-27T11:09:30.038Z,671
2018-05-27T11:10:29.249Z,710
2018-05-27T11:11:32.437Z,718
2018-05-27T11:12:29.177Z,662
2018-05-27T11:13:51.011Z,629
2018-05-27T11:14:51.856Z,647
2018-05-27T11:15:51.508Z,656
2018-05-27T11:16:52.191Z,675
2018-05-27T11:17:52.521Z,701
2018-05-27T11:18:51.292Z,726
2018-05-27T11:19:52.260Z,723
2018-05-27T11:20:51.010Z,683
2018-05-27T11:22:34.957Z,679
2018-05-27T11:23:35.783Z,710
2018-05-27T11:24:35.688Z,709
2018-05-27T11:25:35.458Z,692
2018-05-27T11:26:35.477Z,698
2018-05-27T11:27:35.178Z,689
2018-05-27T11:28:35.182Z,680
2018-05-27T11:29:57.761Z,694
2018-05-27T11:31:42.884Z,699
2018-05-27T11:32:44.318Z,707
2018-05-27T11:33:43.278Z,719
2018-05-27T11:34:43.430Z,713
2018-05-27T11:35:43.664Z,691
2018-05-27T11:37:08.338Z,704
2018-05-27T11:38:08.981Z,721
2018-05-27T11:39:07.873Z,739
2018-05-27T11:40:07.936Z,740
2018-05-27T11:41:07.801Z,756
2018-05-27T11:42:08.245Z,768
2018-05-27T11:43:08.262Z,737
2018-05-27T11:44:08.969Z,727
2018-05-27T11:45:07.607Z,728
2018-05-27T11:46:08.264Z,728
2018-05-27T11:47:08.789Z,718
2018-05-27T11:48:12.048Z,685
2018-05-27T11:49:09.029Z,637
2018-05-27T11:50:07.710Z,610
2018-05-27T11:51:08.499Z,619
2018-05-27T11:52:08.253Z,657
2018-05-27T11:53:09.197Z,660
2018-05-27T11:54:08.024Z,675
2018-05-27T11:55:07.785Z,697
2018-05-27T11:56:09.279Z,684
2018-05-27T11:57:31.799Z,693
2018-05-27T11:58:30.807Z,734
2018-05-27T11:59:30.856Z,754
2018-05-27T12:00:32.815Z,741
2018-05-27T12:02:22.283Z,724
2018-05-27T12:03:21.595Z,735
2018-05-27T12:04:22.051Z,761
2018-05-27T12:05:21.914Z,767
2018-05-27T12:06:28.648Z,761
2018-05-27T12:08:42.669Z,697
2018-05-27T12:09:35.346Z,687
2018-05-27T12:10:34.897Z,651
2018-05-27T12:11:36.817Z,641
2018-05-27T12:12:35.129Z,665
2018-05-27T12:13:36.090Z,699
2018-05-27T12:14:57.927Z,743
2018-05-27T12:15:57.705Z,724
2018-05-27T12:16:59.161Z,702
2018-05-27T12:17:58.010Z,674
2018-05-27T12:18:59.047Z,667
2018-05-27T12:20:00.124Z,688
2018-05-27T12:20:58.313Z,681
2018-05-27T12:21:59.320Z,690
2018-05-27T12:22:58.245Z,708
2018-05-27T12:24:21.895Z,729
2018-05-27T12:25:44.441Z,716
2018-05-27T12:26:44.960Z,716
2018-05-27T12:27:45.016Z,742
2018-05-27T12:28:44.837Z,758
2018-05-27T12:29:47.194Z,740
2018-05-27T12:30:44.983Z,709
2018-05-27T12:31:45.036Z,680
2018-05-27T12:32:45.189Z,612
2018-05-27T12:33:44.822Z,557
2018-05-27T12:35:06.337Z,621
2018-05-27T12:36:07.655Z,719
2018-05-27T12:37:08.169Z,649
2018-05-27T12:38:07.183Z,623
2018-05-27T12:39:06.889Z,700
2018-05-27T12:40:06.563Z,728
2018-05-27T12:41:29.472Z,732
2018-05-27T12:42:30.665Z,736
2018-05-27T12:43:29.641Z,715
2018-05-27T12:44:29.723Z,709
2018-05-27T12:45:30.069Z,722
2018-05-27T12:46:30.793Z,715
2018-05-27T12:47:29.472Z,693
2018-05-27T12:49:11.653Z,717
2018-05-27T12:50:13.609Z,687
2018-05-27T12:51:14.444Z,616
2018-05-27T12:52:12.436Z,611
2018-05-27T12:53:34.111Z,672
2018-05-27T12:54:35.327Z,700
2018-05-27T12:55:34.384Z,693
2018-05-27T12:56:58.552Z,219
2018-05-27T12:57:59.509Z,194
2018-05-27T12:59:20.061Z,189
2018-05-27T13:00:20.660Z,215
2018-05-27T13:01:42.081Z,625
2018-05-27T13:02:43.151Z,699
2018-05-27T13:03:41.760Z,694
2018-05-27T13:04:42.835Z,675
2018-05-27T13:05:42.536Z,688
2018-05-27T13:06:42.562Z,676
2018-05-27T13:07:42.294Z,673
2018-05-27T13:08:42.346Z,175
2018-05-27T13:09:43.591Z,165
2018-05-27T13:10:42.245Z,164
2018-05-27T13:11:42.179Z,185
2018-05-27T13:12:41.817Z,339
2018-05-27T13:13:43.277Z,261
2018-05-27T13:15:05.237Z,479
2018-05-27T13:16:06.004Z,608
2018-05-27T13:17:06.490Z,561
2018-05-27T13:18:05.651Z,567
2018-05-27T13:19:06.252Z,314
2018-05-27T13:20:06.019Z,626
2018-05-27T13:21:05.799Z,623
2018-05-27T13:22:05.759Z,646
2018-05-27T13:23:05.919Z,211
2018-05-27T13:24:05.788Z,525
2018-05-27T13:25:05.417Z,192
2018-05-27T13:26:26.949Z,331
2018-05-27T13:27:50.854Z,638
2018-05-27T13:28:50.882Z,199
2018-05-27T13:30:34.340Z,157
2018-05-27T13:31:56.369Z,146
2018-05-27T13:32:56.137Z,140
2018-05-27T13:34:18.862Z,149
2018-05-27T13:35:18.562Z,155
2018-05-27T13:36:19.590Z,153
2018-05-27T13:37:18.723Z,147
2018-05-27T13:38:19.044Z,143
2018-05-27T13:39:19.839Z,142
2018-05-27T13:40:19.360Z,149
2018-05-27T13:41:41.367Z,168
2018-05-27T13:42:40.989Z,200
2018-05-27T13:43:41.896Z,301
2018-05-27T13:44:40.585Z,638
2018-05-27T13:45:40.211Z,659
2018-05-27T13:47:02.808Z,626
2018-05-27T13:48:02.896Z,595
2018-05-27T13:49:02.805Z,576
2018-05-27T13:50:02.685Z,521
2018-05-27T13:51:02.440Z,497
2018-05-27T13:52:04.993Z,589
2018-05-27T13:53:03.095Z,255
2018-05-27T13:54:03.075Z,191
2018-05-27T13:55:03.383Z,185
2018-05-27T13:56:25.779Z,175
2018-05-27T13:57:53.475Z,159
2018-05-27T13:58:49.511Z,147
2018-05-27T13:59:49.838Z,147
2018-05-27T14:00:48.706Z,148
2018-05-27T14:01:53.100Z,152
2018-05-27T14:02:48.813Z,334
2018-05-27T14:03:50.008Z,347
2018-05-27T14:04:48.651Z,298
2018-05-27T14:06:10.248Z,453
2018-05-27T14:08:01.077Z,444
2018-05-27T14:08:57.637Z,460
2018-05-27T14:09:56.470Z,463
2018-05-27T14:10:57.258Z,435
2018-05-27T14:11:56.638Z,428
2018-05-27T14:12:56.063Z,442
2018-05-27T14:14:01.328Z,477
2018-05-27T14:14:56.865Z,482
2018-05-27T14:15:56.887Z,524
2018-05-27T14:16:57.806Z,501
2018-05-27T14:17:56.562Z,486
2018-05-27T14:18:56.317Z,469
2018-05-27T14:19:56.106Z,434
2018-05-27T14:20:56.719Z,428
2018-05-27T14:21:59.689Z,406
2018-05-27T14:22:57.590Z,394
2018-05-27T14:23:56.026Z,357
2018-05-27T14:24:58.267Z,372
2018-05-27T14:25:57.269Z,359
2018-05-27T14:26:59.504Z,361
2018-05-27T14:27:56.154Z,351
2018-05-27T14:28:56.436Z,367
2018-05-27T14:29:56.226Z,376
2018-05-27T14:30:55.381Z,398
2018-05-27T14:31:55.469Z,403
2018-05-27T14:32:56.064Z,412
2018-05-27T14:34:03.982Z,427
2018-05-27T14:34:56.213Z,457
2018-05-27T14:35:55.795Z,473
2018-05-27T14:36:56.386Z,485
2018-05-27T14:37:55.573Z,502
2018-05-27T14:38:55.163Z,481
2018-05-27T14:39:55.066Z,471
2018-05-27T14:40:54.942Z,462
2018-05-27T14:41:57.266Z,390
2018-05-27T14:42:56.703Z,380
2018-05-27T14:44:18.684Z,350
2018-05-27T14:45:42.244Z,199
2018-05-27T14:46:44.214Z,207
2018-05-27T14:47:43.007Z,161
2018-05-27T14:48:43.254Z,168
2018-05-27T14:49:42.986Z,161
2018-05-27T14:50:43.506Z,158
2018-05-27T14:51:42.210Z,155
2018-05-27T14:52:43.452Z,162
2018-05-27T14:53:42.397Z,162
2018-05-27T14:54:43.531Z,161
2018-05-27T14:55:42.240Z,161
2018-05-27T14:56:43.881Z,160
2018-05-27T14:57:43.472Z,157
2018-05-27T14:58:42.407Z,153
2018-05-27T14:59:42.763Z,146
2018-05-27T15:01:06.215Z,136
2018-05-27T15:02:27.303Z,128
2018-05-27T15:03:35.876Z,125